createdAt,value
2022-11-02T00:01:25.520Z,9.60
2022-11-02T00:03:52.573Z,9.60
2022-11-02T00:06:19.898Z,9.80
2022-11-02T00:08:46.948Z,9.80
2022-11-02T00:11:13.955Z,9.70
2022-11-02T00:13:41.013Z,9.60
2022-11-02T00:16:12.140Z,9.50
2022-11-02T00:18:39.880Z,9.40
2022-11-02T00:21:06.940Z,9.30
2022-11-02T00:23:34.506Z,9.20
2022-11-02T00:26:03.137Z,9.20
2022-11-02T00:28:31.237Z,9.20
2022-11-02T00:30:58.298Z,9.40
2022-11-02T00:33:26.315Z,9.70
2022-11-02T00:35:55.003Z,9.80
2022-11-02T00:38:22.122Z,9.90
2022-11-02T00:40:49.150Z,10.00
2022-11-02T00:43:16.320Z,10.10
2022-11-02T00:45:43.433Z,10.10
2022-11-02T00:48:10.808Z,10.00
2022-11-02T00:50:38.276Z,9.90
2022-11-02T00:53:05.380Z,10.00
2022-11-02T00:55:32.391Z,10.00
2022-11-02T00:57:59.482Z,10.00
2022-11-02T01:00:26.547Z,10.00
2022-11-02T01:02:53.695Z,10.00
2022-11-02T01:05:20.748Z,9.90
2022-11-02T01:07:47.843Z,10.00
2022-11-02T01:10:14.859Z,10.10
2022-11-02T01:12:41.919Z,10.20
2022-11-02T01:15:10.614Z,10.20
2022-11-02T01:17:38.188Z,10.30
2022-11-02T01:20:06.236Z,10.40
2022-11-02T01:22:33.346Z,10.40
2022-11-02T01:25:00.488Z,10.40
2022-11-02T01:27:27.495Z,10.50
2022-11-02T01:29:54.621Z,10.50
2022-11-02T01:32:21.736Z,10.60
2022-11-02T01:34:48.853Z,10.60
2022-11-02T01:37:16.193Z,10.70
2022-11-02T01:39:43.213Z,10.80
2022-11-02T01:42:26.051Z,10.90
2022-11-02T01:44:53.240Z,10.90
2022-11-02T01:47:32.372Z,10.80
2022-11-02T01:50:13.287Z,10.80
2022-11-02T01:52:42.560Z,10.90
2022-11-02T01:55:23.761Z,10.90
2022-11-02T01:57:59.285Z,10.90
2022-11-02T02:00:27.182Z,10.80
2022-11-02T02:03:02.698Z,10.70
2022-11-02T02:05:31.013Z,10.70
2022-11-02T02:07:58.808Z,10.70
2022-11-02T02:10:25.901Z,10.70
2022-11-02T02:12:53.033Z,10.70
2022-11-02T02:15:28.545Z,10.60
2022-11-02T02:18:14.257Z,10.60
2022-11-02T02:21:09.759Z,10.60
2022-11-02T02:24:44.473Z,10.60
2022-11-02T02:27:59.237Z,10.70
2022-11-02T02:30:29.041Z,10.80
2022-11-02T02:33:06.270Z,11.00
2022-11-02T02:35:43.655Z,11.00
2022-11-02T02:38:47.735Z,11.00
2022-11-02T02:41:38.635Z,11.00
2022-11-02T02:44:20.935Z,11.10
2022-11-02T02:46:59.722Z,11.20
2022-11-02T02:49:40.951Z,11.10
2022-11-02T02:52:08.514Z,11.10
2022-11-02T02:54:45.454Z,11.10
2022-11-02T02:57:18.848Z,11.00
2022-11-02T02:59:51.457Z,11.00
2022-11-02T03:02:37.569Z,11.00
2022-11-02T03:05:28.352Z,11.00
2022-11-02T03:07:57.968Z,11.00
2022-11-02T03:10:44.409Z,11.00
2022-11-02T03:13:52.683Z,10.90
2022-11-02T03:16:38.424Z,10.80
2022-11-02T03:19:48.690Z,10.80
2022-11-02T03:22:25.541Z,10.70
2022-11-02T03:25:00.800Z,10.80
2022-11-02T03:27:58.222Z,10.80
2022-11-02T03:30:28.676Z,10.90
2022-11-02T03:33:44.784Z,10.90
2022-11-02T03:36:26.871Z,10.90
2022-11-02T03:39:00.553Z,11.00
2022-11-02T03:41:31.871Z,11.00
2022-11-02T03:44:13.442Z,11.00
2022-11-02T03:46:44.057Z,10.90
2022-11-02T03:49:19.811Z,10.90
2022-11-02T03:51:47.947Z,11.00
2022-11-02T03:54:35.985Z,10.90
2022-11-02T03:57:05.716Z,11.00
2022-11-02T03:59:32.852Z,11.10
2022-11-02T04:02:01.845Z,11.10
2022-11-02T04:04:29.093Z,11.10
2022-11-02T04:06:56.771Z,11.20
2022-11-02T04:09:24.190Z,11.20
2022-11-02T04:12:09.456Z,11.20
2022-11-02T04:14:39.440Z,11.20
2022-11-02T04:17:27.385Z,11.20
2022-11-02T04:19:55.932Z,11.20
2022-11-02T04:22:41.901Z,11.30
2022-11-02T04:25:21.486Z,11.30
2022-11-02T04:27:51.917Z,11.40
2022-11-02T04:30:21.579Z,11.40
2022-11-02T04:33:09.634Z,11.40
2022-11-02T04:35:37.804Z,11.40
2022-11-02T04:38:23.875Z,11.40
2022-11-02T04:41:10.932Z,11.40
2022-11-02T04:43:37.929Z,11.40
2022-11-02T04:46:05.209Z,11.40
2022-11-02T04:48:32.267Z,11.50
2022-11-02T04:50:59.338Z,11.50
2022-11-02T04:53:26.350Z,11.40
2022-11-02T04:55:53.388Z,11.40
2022-11-02T04:58:20.372Z,11.30
2022-11-02T05:00:47.473Z,11.30
2022-11-02T05:03:14.584Z,11.30
2022-11-02T05:05:41.602Z,11.30
2022-11-02T05:08:08.599Z,11.30
2022-11-02T05:10:35.902Z,11.30
2022-11-02T05:13:03.326Z,11.30
2022-11-02T05:15:30.425Z,11.30
2022-11-02T05:17:57.548Z,11.30
2022-11-02T05:20:24.671Z,11.30
2022-11-02T05:22:51.690Z,11.30
2022-11-02T05:25:18.844Z,11.30
2022-11-02T05:27:45.888Z,11.40
2022-11-02T05:30:13.542Z,11.40
2022-11-02T05:32:40.602Z,11.30
2022-11-02T05:35:08.397Z,11.30
2022-11-02T05:37:35.412Z,11.30
2022-11-02T05:40:02.465Z,11.30
2022-11-02T05:42:29.453Z,11.30
2022-11-02T05:44:56.451Z,11.30
2022-11-02T05:47:23.579Z,11.30
2022-11-02T05:49:50.586Z,11.20
2022-11-02T05:52:17.805Z,11.20
2022-11-02T05:54:44.852Z,11.10
2022-11-02T05:57:11.890Z,11.10
2022-11-02T05:59:38.888Z,11.10
2022-11-02T06:02:06.022Z,11.00
2022-11-02T06:04:33.040Z,10.90
2022-11-02T06:07:00.047Z,10.90
2022-11-02T06:09:27.745Z,10.90
2022-11-02T06:11:56.453Z,10.90
2022-11-02T06:14:23.460Z,10.90
2022-11-02T06:16:50.504Z,10.80
2022-11-02T06:19:19.895Z,10.80
2022-11-02T06:21:48.507Z,10.70
2022-11-02T06:24:15.854Z,10.60
2022-11-02T06:26:43.089Z,10.70
2022-11-02T06:29:10.079Z,10.60
2022-11-02T06:31:37.127Z,10.50
2022-11-02T06:34:04.294Z,10.50
2022-11-02T06:36:31.318Z,10.40
2022-11-02T06:38:58.364Z,10.40
2022-11-02T06:41:25.400Z,10.50
2022-11-02T06:43:52.393Z,10.40
2022-11-02T06:46:19.581Z,10.30
2022-11-02T06:48:53.317Z,10.30
2022-11-02T06:51:20.385Z,10.30
2022-11-02T06:53:47.397Z,10.20
2022-11-02T06:56:15.072Z,10.30
2022-11-02T06:58:42.222Z,10.20
2022-11-02T07:01:09.605Z,10.10
2022-11-02T07:03:36.932Z,10.10
2022-11-02T07:06:06.416Z,10.10
2022-11-02T07:08:36.836Z,10.10
2022-11-02T07:11:04.829Z,10.10
2022-11-02T07:13:31.927Z,10.10
2022-11-02T07:15:58.909Z,10.10
2022-11-02T07:18:26.025Z,10.10
2022-11-02T07:20:53.091Z,10.10
2022-11-02T07:23:23.757Z,10.10
2022-11-02T07:25:51.004Z,10.10
2022-11-02T07:28:18.036Z,10.20
2022-11-02T07:30:45.690Z,10.20
2022-11-02T07:33:12.748Z,10.10
2022-11-02T07:35:39.805Z,10.20
2022-11-02T07:38:07.786Z,10.20
2022-11-02T07:40:36.342Z,10.20
2022-11-02T07:43:04.403Z,10.20
2022-11-02T07:45:32.949Z,10.30
2022-11-02T07:48:00.032Z,10.30
2022-11-02T07:50:27.607Z,10.30
2022-11-02T07:52:57.505Z,10.30
2022-11-02T07:55:28.393Z,10.40
2022-11-02T07:58:04.593Z,10.50
2022-11-02T08:00:37.708Z,10.60
2022-11-02T08:03:07.534Z,10.70
2022-11-02T08:05:38.481Z,10.70
2022-11-02T08:08:14.210Z,10.80
2022-11-02T08:10:42.366Z,10.80
2022-11-02T08:13:12.333Z,10.90
2022-11-02T08:15:39.469Z,11.00
2022-11-02T08:18:15.222Z,11.10
2022-11-02T08:20:43.056Z,11.10
2022-11-02T08:23:11.349Z,11.20
2022-11-02T08:25:40.185Z,11.20
2022-11-02T08:28:09.854Z,11.20
2022-11-02T08:30:38.546Z,11.20
2022-11-02T08:33:11.782Z,11.30
2022-11-02T08:35:40.021Z,11.30
2022-11-02T08:38:08.223Z,11.40
2022-11-02T08:40:36.423Z,11.30
2022-11-02T08:43:09.967Z,11.40
2022-11-02T08:46:12.420Z,11.50
2022-11-02T08:48:27.419Z,11.50
2022-11-02T08:50:56.232Z,11.50
2022-11-02T08:53:23.448Z,11.60
2022-11-02T08:55:50.540Z,11.70
2022-11-02T08:58:19.230Z,11.60
2022-11-02T09:00:46.384Z,11.70
2022-11-02T09:03:15.764Z,11.70
2022-11-02T09:05:47.594Z,11.80
2022-11-02T09:08:17.952Z,11.80
2022-11-02T09:10:47.487Z,11.90
2022-11-02T09:13:16.056Z,11.90
2022-11-02T09:15:43.106Z,12.00
2022-11-02T09:18:10.399Z,12.10
2022-11-02T09:20:37.681Z,12.10
2022-11-02T09:23:04.775Z,12.20
2022-11-02T09:25:32.054Z,12.30
2022-11-02T09:27:59.334Z,12.40
2022-11-02T09:30:28.888Z,12.40
2022-11-02T09:32:57.813Z,12.50
2022-11-02T09:35:27.159Z,12.60
2022-11-02T09:37:54.210Z,12.60
2022-11-02T09:40:26.908Z,12.60
2022-11-02T09:43:09.133Z,12.60
2022-11-02T09:46:01.609Z,12.70
2022-11-02T09:48:43.737Z,12.70
2022-11-02T09:51:19.110Z,12.80
2022-11-02T09:54:55.559Z,13.00
2022-11-02T09:57:30.829Z,13.10
2022-11-02T09:59:58.136Z,13.20
2022-11-02T10:02:58.254Z,13.40
2022-11-02T10:05:48.830Z,13.40
2022-11-02T10:08:22.049Z,13.40
2022-11-02T10:11:32.444Z,13.50
2022-11-02T10:14:10.441Z,13.50
2022-11-02T10:17:05.574Z,13.50
2022-11-02T10:19:43.582Z,13.60
2022-11-02T10:22:15.378Z,13.70
2022-11-02T10:24:45.759Z,13.60
2022-11-02T10:27:26.471Z,13.50
2022-11-02T10:30:17.313Z,13.50
2022-11-02T10:32:46.238Z,13.50
2022-11-02T10:35:57.673Z,13.50
2022-11-02T10:39:05.335Z,13.40
2022-11-02T10:42:01.352Z,13.40
2022-11-02T10:44:58.687Z,13.40
2022-11-02T10:47:30.692Z,13.70
2022-11-02T10:50:31.198Z,13.80
2022-11-02T10:53:27.512Z,14.10
2022-11-02T10:55:55.909Z,14.40
2022-11-02T10:58:24.853Z,14.50
2022-11-02T11:01:09.955Z,14.60
2022-11-02T11:04:01.888Z,14.80
2022-11-02T11:06:36.741Z,14.90
2022-11-02T11:09:19.748Z,14.80
2022-11-02T11:12:21.000Z,14.80
2022-11-02T11:20:38.743Z,15.60
2022-11-02T11:23:25.837Z,15.90
2022-11-02T11:26:06.764Z,16.30
2022-11-02T11:28:40.779Z,16.30
2022-11-02T11:31:15.932Z,16.00
2022-11-02T11:34:03.769Z,16.30
2022-11-02T11:36:39.938Z,16.60
2022-11-02T11:39:30.733Z,16.60
2022-11-02T11:41:58.801Z,16.20
2022-11-02T11:44:26.403Z,15.90
2022-11-02T11:46:57.662Z,15.60
2022-11-02T11:52:38.636Z,15.10
2022-11-02T11:55:28.419Z,15.70
2022-11-02T11:58:07.818Z,16.20
2022-11-02T12:00:35.243Z,16.90
2022-11-02T12:03:12.027Z,17.20
2022-11-02T12:05:47.748Z,17.30
2022-11-02T12:08:48.961Z,17.60
2022-11-02T12:11:48.113Z,17.90
2022-11-02T12:14:30.701Z,17.90
2022-11-02T12:17:41.369Z,17.80
2022-11-02T12:20:17.816Z,17.70
2022-11-02T12:22:58.580Z,18.10
2022-11-02T12:25:40.027Z,17.80
2022-11-02T12:28:42.049Z,17.00
2022-11-02T12:31:22.325Z,16.50
2022-11-02T12:34:53.317Z,16.60
2022-11-02T12:37:57.265Z,16.10
2022-11-02T12:41:08.136Z,16.00
2022-11-02T12:43:49.690Z,15.80
2022-11-02T12:46:43.344Z,15.50
2022-11-02T12:49:48.348Z,15.30
2022-11-02T12:52:58.160Z,15.60
2022-11-02T12:55:38.321Z,15.70
2022-11-02T12:58:14.214Z,15.30
2022-11-02T13:00:44.375Z,15.20
2022-11-02T13:03:32.727Z,15.10
2022-11-02T13:06:06.635Z,15.70
2022-11-02T13:08:51.412Z,16.50
2022-11-02T13:11:37.765Z,16.30
2022-11-02T13:14:15.375Z,16.20
2022-11-02T13:16:56.243Z,16.50
2022-11-02T13:19:53.322Z,17.10
2022-11-02T13:22:27.413Z,17.10
2022-11-02T13:25:06.801Z,17.40
2022-11-02T13:27:47.633Z,17.40
2022-11-02T13:30:18.319Z,17.20
2022-11-02T13:32:51.896Z,16.90
2022-11-02T13:35:26.501Z,16.80
2022-11-02T13:38:12.717Z,16.80
2022-11-02T13:40:54.983Z,17.30
2022-11-02T13:43:41.604Z,17.10
2022-11-02T13:46:53.232Z,17.20
2022-11-02T13:49:33.327Z,17.60
2022-11-02T13:52:15.346Z,17.70
2022-11-02T13:54:51.907Z,17.80
2022-11-02T13:57:44.892Z,17.70
2022-11-02T14:00:44.456Z,17.30
2022-11-02T14:03:37.419Z,17.30
2022-11-02T14:06:12.924Z,17.20
2022-11-02T14:08:49.669Z,16.60
2022-11-02T14:11:37.180Z,16.40
2022-11-02T14:14:04.380Z,16.40
2022-11-02T14:16:51.158Z,16.30
2022-11-02T14:19:20.640Z,16.40
2022-11-02T14:21:59.885Z,16.50
2022-11-02T14:24:38.372Z,16.40
2022-11-02T14:27:14.821Z,16.00
2022-11-02T14:29:45.141Z,15.60
2022-11-02T14:32:35.637Z,15.10
2022-11-02T14:35:18.001Z,14.70
2022-11-02T14:38:20.576Z,14.70
2022-11-02T14:41:21.394Z,14.50
2022-11-02T14:43:54.024Z,14.40
2022-11-02T14:47:13.491Z,14.40
2022-11-02T14:49:56.478Z,14.20
2022-11-02T14:52:33.630Z,14.00
2022-11-02T14:55:26.810Z,14.00
2022-11-02T14:58:11.261Z,13.80
2022-11-02T15:01:00.522Z,13.70
2022-11-02T15:03:36.170Z,13.60
2022-11-02T15:06:15.483Z,13.50
2022-11-02T15:08:42.566Z,13.30
2022-11-02T15:11:52.012Z,13.30
2022-11-02T15:14:39.948Z,13.20
2022-11-02T15:17:13.142Z,13.10
2022-11-02T15:19:46.419Z,13.00
2022-11-02T15:22:32.414Z,12.90
2022-11-02T15:25:06.435Z,12.70
2022-11-02T15:27:41.615Z,12.60
2022-11-02T15:30:16.609Z,12.50
2022-11-02T15:32:54.523Z,12.30
2022-11-02T15:35:30.811Z,12.20
2022-11-02T15:38:19.200Z,12.10
2022-11-02T15:41:04.445Z,11.90
2022-11-02T15:47:02.582Z,11.60
2022-11-02T15:49:49.532Z,11.40
2022-11-02T15:53:21.689Z,11.10
2022-11-02T15:56:43.901Z,10.90
2022-11-02T15:59:47.412Z,10.80
2022-11-02T16:02:27.541Z,10.40
2022-11-02T16:04:59.388Z,10.30
2022-11-02T16:07:33.321Z,10.20
2022-11-02T16:10:29.238Z,10.10
2022-11-02T16:13:20.424Z,9.90
2022-11-02T16:15:49.703Z,9.80
2022-11-02T16:18:38.479Z,9.60
2022-11-02T16:21:09.752Z,9.50
2022-11-02T16:23:40.355Z,9.30
2022-11-02T16:26:20.482Z,9.20
2022-11-02T16:28:56.761Z,9.20
2022-11-02T16:31:30.868Z,9.10
2022-11-02T16:34:21.225Z,8.90
2022-11-02T16:36:48.770Z,8.90
2022-11-02T16:39:21.192Z,8.90
2022-11-02T16:41:52.570Z,8.80
2022-11-02T16:44:30.563Z,8.70
2022-11-02T16:47:09.848Z,8.60
2022-11-02T16:49:51.971Z,8.50
2022-11-02T16:52:38.017Z,8.50
2022-11-02T16:55:37.424Z,8.40
2022-11-02T16:58:08.551Z,8.40
2022-11-02T17:00:36.850Z,8.30
2022-11-02T17:03:15.320Z,8.30
2022-11-02T17:05:47.867Z,8.20
2022-11-02T17:08:53.347Z,8.20
2022-11-02T17:11:21.233Z,8.10
2022-11-02T17:13:57.082Z,8.00
2022-11-02T17:16:25.169Z,8.00
2022-11-02T17:18:52.216Z,7.90
2022-11-02T17:21:29.025Z,7.90
2022-11-02T17:23:58.160Z,7.80
2022-11-02T17:26:26.496Z,7.80
2022-11-02T17:29:19.336Z,7.70
2022-11-02T17:31:53.377Z,7.70
2022-11-02T17:34:20.878Z,7.70
2022-11-02T17:36:49.776Z,7.70
2022-11-02T17:39:20.675Z,7.60
2022-11-02T17:42:13.732Z,7.50
2022-11-02T17:44:43.807Z,7.50
2022-11-02T17:47:18.386Z,7.40
2022-11-02T17:49:45.463Z,7.40
2022-11-02T17:52:16.371Z,7.40
2022-11-02T17:54:43.455Z,7.30
2022-11-02T17:57:14.617Z,7.30
2022-11-02T17:59:41.741Z,7.20
2022-11-02T18:02:14.671Z,7.20
2022-11-02T18:07:13.968Z,7.20
2022-11-02T18:09:40.994Z,7.20
2022-11-02T18:12:14.334Z,7.10
2022-11-02T18:14:41.791Z,7.10
2022-11-02T18:17:09.113Z,7.10
2022-11-02T18:19:36.153Z,7.00
2022-11-02T18:22:03.229Z,7.10
2022-11-02T18:24:30.787Z,7.10
2022-11-02T18:26:57.830Z,7.00
2022-11-02T18:29:25.000Z,6.90
2022-11-02T18:31:52.053Z,6.80
2022-11-02T18:34:21.789Z,6.80
2022-11-02T18:36:48.860Z,6.80
2022-11-02T18:39:15.883Z,6.70
2022-11-02T18:41:42.974Z,6.70
2022-11-02T18:44:14.957Z,6.60
2022-11-02T18:46:42.565Z,6.60
2022-11-02T18:49:09.933Z,6.60
2022-11-02T18:51:37.194Z,6.60
2022-11-02T18:54:06.309Z,6.60
2022-11-02T18:56:33.813Z,6.60
2022-11-02T18:59:02.566Z,6.60
2022-11-02T19:01:30.330Z,6.60
2022-11-02T19:03:59.818Z,6.50
2022-11-02T19:06:48.032Z,6.50
2022-11-02T19:09:20.458Z,6.60
2022-11-02T19:12:05.527Z,6.50
2022-11-02T19:14:39.950Z,6.50
2022-11-02T19:17:08.740Z,6.50
2022-11-02T19:19:36.043Z,6.50
2022-11-02T19:22:03.828Z,6.30
2022-11-02T19:24:31.280Z,6.20
2022-11-02T19:26:58.416Z,6.20
2022-11-02T19:29:25.589Z,6.10
2022-11-02T19:31:52.830Z,6.10
2022-11-02T19:34:19.847Z,6.10
2022-11-02T19:36:46.875Z,6.00
2022-11-02T19:39:13.940Z,6.00
2022-11-02T19:41:40.941Z,6.00
2022-11-02T19:44:08.016Z,6.00
2022-11-02T19:46:35.461Z,6.00
2022-11-02T19:49:02.495Z,6.00
2022-11-02T19:51:31.386Z,6.00
2022-11-02T19:54:01.753Z,6.00
2022-11-02T19:56:32.730Z,6.00
2022-11-02T19:59:00.245Z,5.90
2022-11-02T20:01:39.726Z,5.90
2022-11-02T20:04:07.629Z,5.80
2022-11-02T20:06:37.935Z,5.80
2022-11-02T20:09:10.353Z,5.80
2022-11-02T20:11:39.784Z,5.80
2022-11-02T20:14:06.957Z,5.80
2022-11-02T20:16:34.041Z,5.70
2022-11-02T20:19:01.243Z,5.70
2022-11-02T20:21:36.715Z,5.60
2022-11-02T20:24:08.374Z,5.70
2022-11-02T20:26:37.438Z,5.60
2022-11-02T20:29:07.035Z,5.60
2022-11-02T20:31:39.578Z,5.70
2022-11-02T20:34:08.569Z,5.70
2022-11-02T20:36:37.841Z,5.70
2022-11-02T20:39:05.836Z,5.70
2022-11-02T20:41:33.114Z,5.70
2022-11-02T20:44:01.672Z,5.70
2022-11-02T20:46:37.537Z,5.70
2022-11-02T20:49:22.360Z,5.60
2022-11-02T20:51:54.158Z,5.50
2022-11-02T20:54:22.353Z,5.40
2022-11-02T20:56:50.408Z,5.40
2022-11-02T20:59:17.962Z,5.40
2022-11-02T21:01:45.752Z,5.30
2022-11-02T21:04:18.580Z,5.30
2022-11-02T21:06:49.125Z,5.30
2022-11-02T21:09:16.313Z,5.30
2022-11-02T21:12:03.557Z,5.30
2022-11-02T21:14:30.713Z,5.30
2022-11-02T21:16:57.738Z,5.20
2022-11-02T21:19:24.913Z,5.20
2022-11-02T21:21:58.070Z,5.20
2022-11-02T21:24:26.457Z,5.10
2022-11-02T21:26:53.529Z,5.10
2022-11-02T21:29:21.285Z,5.10
2022-11-02T21:31:48.894Z,5.10
2022-11-02T21:34:15.952Z,5.20
2022-11-02T21:36:43.053Z,5.30
2022-11-02T21:39:10.184Z,5.30
2022-11-02T21:41:38.966Z,5.40
2022-11-02T21:44:09.616Z,5.40
2022-11-02T21:46:36.660Z,5.40
2022-11-02T21:49:03.915Z,5.40
2022-11-02T21:51:31.042Z,5.50
2022-11-02T21:53:58.163Z,5.50
2022-11-02T21:56:27.990Z,5.60
2022-11-02T21:58:56.172Z,5.50
2022-11-02T22:01:45.665Z,5.60
2022-11-02T22:04:15.835Z,5.60
2022-11-02T22:06:43.192Z,5.60
2022-11-02T22:09:13.013Z,5.60
2022-11-02T22:11:40.771Z,5.60
2022-11-02T22:14:07.857Z,5.50
2022-11-02T22:16:38.176Z,5.30
2022-11-02T22:19:11.469Z,5.30
2022-11-02T22:21:44.562Z,5.30
2022-11-02T22:24:12.329Z,5.30
2022-11-02T22:26:40.556Z,5.30
2022-11-02T22:29:08.776Z,5.30
2022-11-02T22:31:39.769Z,5.20
2022-11-02T22:34:10.496Z,5.20
2022-11-02T22:36:40.753Z,5.20
2022-11-02T22:39:12.033Z,5.20
2022-11-02T22:41:45.176Z,5.20
2022-11-02T22:44:19.196Z,5.20
2022-11-02T22:46:49.725Z,5.20
2022-11-02T22:49:19.378Z,5.30
2022-11-02T22:51:49.520Z,5.40
2022-11-02T22:54:19.107Z,5.50
2022-11-02T22:56:49.574Z,5.50
2022-11-02T22:59:16.893Z,5.50
2022-11-02T23:01:44.108Z,5.40
2022-11-02T23:04:13.621Z,5.40
2022-11-02T23:06:41.001Z,5.30
2022-11-02T23:09:10.668Z,5.30
2022-11-02T23:11:38.436Z,5.30
2022-11-02T23:14:14.112Z,5.30
2022-11-02T23:16:44.159Z,5.30
2022-11-02T23:19:31.038Z,5.20
2022-11-02T23:22:31.009Z,5.20
2022-11-02T23:25:14.133Z,5.20
2022-11-02T23:28:14.582Z,5.20
2022-11-02T23:31:01.393Z,5.20
2022-11-02T23:33:36.304Z,5.10
2022-11-02T23:36:10.943Z,5.00
2022-11-02T23:39:03.950Z,5.00
2022-11-02T23:41:33.488Z,4.90
2022-11-02T23:44:14.171Z,4.90
2022-11-02T23:46:44.148Z,4.90
2022-11-02T23:49:12.931Z,4.90
2022-11-02T23:51:58.845Z,5.00
2022-11-02T23:54:44.749Z,5.00
2022-11-02T23:57:12.799Z,5.00
2022-11-02T23:59:40.297Z,5.10
